sensor_id;sensor_type;location;lat;lon;timestamp;pressure;altitude;pressure_sealevel;temperature;humidity
76122;BME280;70471;53.200;6.080;2024-02-16T00:00:02;100946.47;;;20.91;39.93
76122;BME280;70471;53.200;6.080;2024-02-16T00:04:55;100937.22;;;20.82;40.16
76122;BME280;70471;53.200;6.080;2024-02-16T00:09:47;100936.00;;;20.88;40.26
76122;BME280;70471;53.200;6.080;2024-02-16T00:14:39;100923.25;;;20.87;40.08
76122;BME280;70471;53.200;6.080;2024-02-16T00:19:34;100929.09;;;20.86;40.27
76122;BME280;70471;53.200;6.080;2024-02-16T00:24:27;100933.31;;;20.83;40.11
76122;BME280;70471;53.200;6.080;2024-02-16T00:29:22;100923.47;;;20.77;40.54
76122;BME280;70471;53.200;6.080;2024-02-16T00:34:15;100917.06;;;20.77;40.38
76122;BME280;70471;53.200;6.080;2024-02-16T00:39:09;100912.69;;;20.76;40.09
76122;BME280;70471;53.200;6.080;2024-02-16T00:44:00;100890.19;;;20.63;40.43
76122;BME280;70471;53.200;6.080;2024-02-16T00:48:53;100892.88;;;20.68;40.36
76122;BME280;70471;53.200;6.080;2024-02-16T00:53:46;100893.91;;;20.72;40.22
76122;BME280;70471;53.200;6.080;2024-02-16T00:58:41;100893.41;;;20.70;40.19
76122;BME280;70471;53.200;6.080;2024-02-16T01:03:34;100895.34;;;20.70;39.82
76122;BME280;70471;53.200;6.080;2024-02-16T01:08:28;100891.84;;;20.64;40.05
76122;BME280;70471;53.200;6.080;2024-02-16T01:13:20;100903.13;;;20.68;40.34
76122;BME280;70471;53.200;6.080;2024-02-16T01:18:15;100894.31;;;20.66;40.23
76122;BME280;70471;53.200;6.080;2024-02-16T01:23:07;100882.81;;;20.59;40.09
76122;BME280;70471;53.200;6.080;2024-02-16T01:27:59;100880.03;;;20.59;40.13
76122;BME280;70471;53.200;6.080;2024-02-16T01:32:51;100880.53;;;20.61;40.37
76122;BME280;70471;53.200;6.080;2024-02-16T01:37:45;100884.47;;;20.60;39.79
76122;BME280;70471;53.200;6.080;2024-02-16T01:42:38;100826.31;;;20.27;39.75
76122;BME280;70471;53.200;6.080;2024-02-16T01:47:30;100868.00;;;20.49;39.96
76122;BME280;70471;53.200;6.080;2024-02-16T01:52:22;100862.41;;;20.54;40.06
76122;BME280;70471;53.200;6.080;2024-02-16T01:57:17;100858.28;;;20.52;40.19
76122;BME280;70471;53.200;6.080;2024-02-16T02:02:10;100859.09;;;20.52;39.89
76122;BME280;70471;53.200;6.080;2024-02-16T02:07:12;100846.56;;;20.41;40.18
76122;BME280;70471;53.200;6.080;2024-02-16T02:12:04;100852.56;;;20.48;40.12
76122;BME280;70471;53.200;6.080;2024-02-16T02:16:59;100846.47;;;20.46;39.75
76122;BME280;70471;53.200;6.080;2024-02-16T02:21:52;100850.38;;;20.45;40.20
76122;BME280;70471;53.200;6.080;2024-02-16T02:26:45;100833.25;;;20.43;39.87
76122;BME280;70471;53.200;6.080;2024-02-16T02:31:38;100815.94;;;20.37;39.63
76122;BME280;70471;53.200;6.080;2024-02-16T02:36:30;100830.06;;;20.36;39.93
76122;BME280;70471;53.200;6.080;2024-02-16T02:41:23;100831.09;;;20.40;40.10
76122;BME280;70471;53.200;6.080;2024-02-16T02:46:17;100809.34;;;20.33;39.46
76122;BME280;70471;53.200;6.080;2024-02-16T02:51:10;100821.47;;;20.37;39.52
76122;BME280;70471;53.200;6.080;2024-02-16T02:56:02;100826.78;;;20.34;39.65
76122;BME280;70471;53.200;6.080;2024-02-16T03:00:55;100798.53;;;20.18;39.59
76122;BME280;70471;53.200;6.080;2024-02-16T03:05:51;100805.84;;;20.28;39.70
76122;BME280;70471;53.200;6.080;2024-02-16T03:10:43;100786.53;;;20.23;39.78
76122;BME280;70471;53.200;6.080;2024-02-16T03:15:37;100760.94;;;20.17;39.79
76122;BME280;70471;53.200;6.080;2024-02-16T03:20:29;100773.25;;;20.25;39.79
76122;BME280;70471;53.200;6.080;2024-02-16T03:25:23;100768.31;;;20.22;39.78
76122;BME280;70471;53.200;6.080;2024-02-16T03:30:17;100801.22;;;20.23;40.04
76122;BME280;70471;53.200;6.080;2024-02-16T03:35:10;100770.53;;;20.06;39.82
76122;BME280;70471;53.200;6.080;2024-02-16T03:40:06;100791.25;;;20.22;39.57
76122;BME280;70471;53.200;6.080;2024-02-16T03:45:00;100772.47;;;20.05;39.61
76122;BME280;70471;53.200;6.080;2024-02-16T03:49:53;100796.59;;;20.18;39.56
76122;BME280;70471;53.200;6.080;2024-02-16T03:54:46;100775.56;;;20.17;39.42
76122;BME280;70471;53.200;6.080;2024-02-16T03:59:39;100742.66;;;20.02;39.97
76122;BME280;70471;53.200;6.080;2024-02-16T04:04:34;100762.66;;;20.13;39.43
76122;BME280;70471;53.200;6.080;2024-02-16T04:09:26;100769.34;;;20.12;39.41
76122;BME280;70471;53.200;6.080;2024-02-16T04:14:19;100741.13;;;19.96;39.35
76122;BME280;70471;53.200;6.080;2024-02-16T04:19:11;100750.44;;;20.00;39.80
76122;BME280;70471;53.200;6.080;2024-02-16T04:24:05;100749.56;;;19.86;39.46
76122;BME280;70471;53.200;6.080;2024-02-16T04:28:58;100763.34;;;20.05;39.60
76122;BME280;70471;53.200;6.080;2024-02-16T04:33:50;100747.97;;;19.98;39.65
76122;BME280;70471;53.200;6.080;2024-02-16T04:38:42;100775.78;;;20.07;39.75
76122;BME280;70471;53.200;6.080;2024-02-16T04:43:36;100772.88;;;19.98;39.38
76122;BME280;70471;53.200;6.080;2024-02-16T04:48:28;100773.00;;;20.07;39.76
76122;BME280;70471;53.200;6.080;2024-02-16T04:53:21;100774.81;;;19.98;39.38
76122;BME280;70471;53.200;6.080;2024-02-16T04:58:14;100769.88;;;19.95;39.91
76122;BME280;70471;53.200;6.080;2024-02-16T05:03:08;100763.31;;;19.91;39.45
76122;BME280;70471;53.200;6.080;2024-02-16T05:08:01;100770.09;;;19.98;39.45
76122;BME280;70471;53.200;6.080;2024-02-16T05:12:53;100749.94;;;19.98;39.86
76122;BME280;70471;53.200;6.080;2024-02-16T05:17:47;100742.25;;;19.95;39.60
76122;BME280;70471;53.200;6.080;2024-02-16T05:22:42;100750.75;;;19.98;39.68
76122;BME280;70471;53.200;6.080;2024-02-16T05:27:36;100759.88;;;19.99;39.80
76122;BME280;70471;53.200;6.080;2024-02-16T05:32:28;100748.16;;;19.88;39.56
76122;BME280;70471;53.200;6.080;2024-02-16T05:37:20;100733.09;;;19.80;39.43
76122;BME280;70471;53.200;6.080;2024-02-16T05:42:14;100736.91;;;19.98;39.33
76122;BME280;70471;53.200;6.080;2024-02-16T05:47:06;100720.72;;;19.92;39.55
76122;BME280;70471;53.200;6.080;2024-02-16T05:51:58;100738.34;;;19.96;39.27
76122;BME280;70471;53.200;6.080;2024-02-16T05:57:04;100727.16;;;19.87;39.34
76122;BME280;70471;53.200;6.080;2024-02-16T06:01:57;100735.06;;;19.94;39.12
76122;BME280;70471;53.200;6.080;2024-02-16T06:06:50;100752.25;;;19.91;39.35
76122;BME280;70471;53.200;6.080;2024-02-16T06:11:44;100747.94;;;19.84;39.73
76122;BME280;70471;53.200;6.080;2024-02-16T06:16:36;100748.47;;;19.87;39.61
76122;BME280;70471;53.200;6.080;2024-02-16T06:21:30;100741.38;;;19.80;39.52
76122;BME280;70471;53.200;6.080;2024-02-16T06:26:22;100764.44;;;19.90;39.67
76122;BME280;70471;53.200;6.080;2024-02-16T06:31:14;100732.03;;;19.76;39.59
76122;BME280;70471;53.200;6.080;2024-02-16T06:36:07;100753.91;;;19.92;39.24
76122;BME280;70471;53.200;6.080;2024-02-16T06:41:02;100759.53;;;19.87;39.73
76122;BME280;70471;53.200;6.080;2024-02-16T06:45:54;100746.47;;;19.73;39.47
76122;BME280;70471;53.200;6.080;2024-02-16T06:50:47;100759.81;;;19.85;39.10
76122;BME280;70471;53.200;6.080;2024-02-16T06:55:40;100747.31;;;19.74;39.54
76122;BME280;70471;53.200;6.080;2024-02-16T07:00:34;100773.88;;;19.89;39.16
76122;BME280;70471;53.200;6.080;2024-02-16T07:05:27;100770.13;;;19.79;39.30
76122;BME280;70471;53.200;6.080;2024-02-16T07:10:22;100798.00;;;19.83;39.59
76122;BME280;70471;53.200;6.080;2024-02-16T07:15:15;100799.44;;;19.80;39.25
76122;BME280;70471;53.200;6.080;2024-02-16T07:20:09;100796.22;;;19.73;39.20
76122;BME280;70471;53.200;6.080;2024-02-16T07:25:01;100819.22;;;19.88;39.45
76122;BME280;70471;53.200;6.080;2024-02-16T07:29:55;100798.31;;;19.81;39.57
76122;BME280;70471;53.200;6.080;2024-02-16T07:34:47;100810.91;;;19.88;39.08
76122;BME280;70471;53.200;6.080;2024-02-16T07:39:42;100795.81;;;19.99;39.50
76122;BME280;70471;53.200;6.080;2024-02-16T07:44:33;100803.16;;;20.23;38.86
76122;BME280;70471;53.200;6.080;2024-02-16T07:49:26;100777.22;;;20.18;39.26
76122;BME280;70471;53.200;6.080;2024-02-16T07:54:19;100795.75;;;20.37;39.04
76122;BME280;70471;53.200;6.080;2024-02-16T07:59:12;100804.88;;;20.51;39.26
76122;BME280;70471;53.200;6.080;2024-02-16T08:04:04;100806.72;;;20.70;39.64
76122;BME280;70471;53.200;6.080;2024-02-16T08:08:55;100812.28;;;20.84;39.14
76122;BME280;70471;53.200;6.080;2024-02-16T08:13:47;100812.78;;;21.00;38.70
76122;BME280;70471;53.200;6.080;2024-02-16T08:18:43;100820.94;;;21.10;38.82
76122;BME280;70471;53.200;6.080;2024-02-16T08:23:35;100825.31;;;21.25;38.79
76122;BME280;70471;53.200;6.080;2024-02-16T08:28:28;100824.78;;;21.37;38.42
76122;BME280;70471;53.200;6.080;2024-02-16T08:33:20;100825.63;;;21.37;38.04
76122;BME280;70471;53.200;6.080;2024-02-16T08:38:14;100827.44;;;21.42;38.01
76122;BME280;70471;53.200;6.080;2024-02-16T08:43:06;100839.84;;;21.44;37.87
76122;BME280;70471;53.200;6.080;2024-02-16T08:47:59;100842.03;;;21.34;38.13
76122;BME280;70471;53.200;6.080;2024-02-16T08:52:53;100835.47;;;21.16;37.98
76122;BME280;70471;53.200;6.080;2024-02-16T08:57:47;100846.84;;;21.42;37.83
76122;BME280;70471;53.200;6.080;2024-02-16T09:02:40;100844.03;;;21.56;37.78
76122;BME280;70471;53.200;6.080;2024-02-16T09:07:33;100854.72;;;21.62;37.58
76122;BME280;70471;53.200;6.080;2024-02-16T09:12:25;100852.25;;;21.61;37.86
76122;BME280;70471;53.200;6.080;2024-02-16T09:17:19;100858.38;;;21.72;38.02
76122;BME280;70471;53.200;6.080;2024-02-16T09:22:11;100875.13;;;21.67;37.71
76122;BME280;70471;53.200;6.080;2024-02-16T09:27:03;100883.75;;;21.65;37.65
76122;BME280;70471;53.200;6.080;2024-02-16T09:31:56;100897.84;;;21.69;37.93
76122;BME280;70471;53.200;6.080;2024-02-16T09:36:50;100889.22;;;21.56;38.05
76122;BME280;70471;53.200;6.080;2024-02-16T09:41:42;100909.25;;;21.53;38.29
76122;BME280;70471;53.200;6.080;2024-02-16T09:46:35;100887.00;;;21.31;38.00
76122;BME280;70471;53.200;6.080;2024-02-16T09:51:28;100918.63;;;21.30;38.54
76122;BME280;70471;53.200;6.080;2024-02-16T09:56:22;100919.13;;;21.32;38.77
76122;BME280;70471;53.200;6.080;2024-02-16T10:01:19;100922.19;;;21.16;38.49
76122;BME280;70471;53.200;6.080;2024-02-16T10:06:12;100930.72;;;21.20;38.46
76122;BME280;70471;53.200;6.080;2024-02-16T10:11:05;100923.44;;;21.10;38.77
76122;BME280;70471;53.200;6.080;2024-02-16T10:16:06;100942.31;;;21.08;38.64
76122;BME280;70471;53.200;6.080;2024-02-16T10:21:00;100961.38;;;21.09;38.68
76122;BME280;70471;53.200;6.080;2024-02-16T10:25:52;100976.09;;;21.10;39.13
76122;BME280;70471;53.200;6.080;2024-02-16T10:30:44;100978.91;;;21.05;38.98
76122;BME280;70471;53.200;6.080;2024-02-16T10:35:38;101000.47;;;21.08;38.93
76122;BME280;70471;53.200;6.080;2024-02-16T10:40:32;101009.38;;;21.05;39.08
76122;BME280;70471;53.200;6.080;2024-02-16T10:45:25;101017.47;;;21.01;38.99
76122;BME280;70471;53.200;6.080;2024-02-16T10:50:18;101026.09;;;21.00;39.26
76122;BME280;70471;53.200;6.080;2024-02-16T10:55:12;101050.09;;;21.04;39.04
76122;BME280;70471;53.200;6.080;2024-02-16T11:00:10;101053.69;;;21.05;39.51
76122;BME280;70471;53.200;6.080;2024-02-16T11:05:07;101067.44;;;20.96;39.15
76122;BME280;70471;53.200;6.080;2024-02-16T11:09:59;101088.69;;;21.01;39.18
76122;BME280;70471;53.200;6.080;2024-02-16T11:14:56;101091.22;;;20.97;39.51
76122;BME280;70471;53.200;6.080;2024-02-16T11:19:49;101080.44;;;20.96;39.49
76122;BME280;70471;53.200;6.080;2024-02-16T11:24:43;101082.09;;;20.97;39.66
76122;BME280;70471;53.200;6.080;2024-02-16T11:29:36;101080.97;;;20.98;40.14
76122;BME280;70471;53.200;6.080;2024-02-16T11:34:31;101120.66;;;20.93;39.82
76122;BME280;70471;53.200;6.080;2024-02-16T11:39:25;101133.00;;;21.01;39.88
76122;BME280;70471;53.200;6.080;2024-02-16T11:44:17;101149.03;;;21.04;39.73
76122;BME280;70471;53.200;6.080;2024-02-16T11:49:10;101152.22;;;20.92;39.98
76122;BME280;70471;53.200;6.080;2024-02-16T11:54:04;101174.25;;;21.02;39.90
76122;BME280;70471;53.200;6.080;2024-02-16T11:58:56;101135.69;;;20.87;40.10
76122;BME280;70471;53.200;6.080;2024-02-16T12:03:49;101153.72;;;21.03;39.90
76122;BME280;70471;53.200;6.080;2024-02-16T12:08:41;101147.44;;;20.98;39.79
76122;BME280;70471;53.200;6.080;2024-02-16T12:13:35;101158.97;;;21.05;40.02
76122;BME280;70471;53.200;6.080;2024-02-16T12:18:27;101165.66;;;21.04;40.15
76122;BME280;70471;53.200;6.080;2024-02-16T12:23:20;101192.63;;;21.17;40.10
76122;BME280;70471;53.200;6.080;2024-02-16T12:28:13;101184.38;;;21.12;39.74
76122;BME280;70471;53.200;6.080;2024-02-16T12:33:07;101187.97;;;21.13;39.72
76122;BME280;70471;53.200;6.080;2024-02-16T12:37:59;101214.78;;;21.17;39.59
76122;BME280;70471;53.200;6.080;2024-02-16T12:42:51;101221.97;;;21.18;39.94
76122;BME280;70471;53.200;6.080;2024-02-16T12:47:44;101231.03;;;21.24;39.80
76122;BME280;70471;53.200;6.080;2024-02-16T12:52:39;101256.22;;;21.27;39.67
76122;BME280;70471;53.200;6.080;2024-02-16T12:57:31;101255.47;;;21.22;39.56
76122;BME280;70471;53.200;6.080;2024-02-16T13:02:23;101277.25;;;21.28;39.72
76122;BME280;70471;53.200;6.080;2024-02-16T13:07:15;101288.03;;;21.30;39.14
76122;BME280;70471;53.200;6.080;2024-02-16T13:12:09;101286.63;;;21.33;39.56
76122;BME280;70471;53.200;6.080;2024-02-16T13:17:01;101298.59;;;21.28;39.65
76122;BME280;70471;53.200;6.080;2024-02-16T13:21:53;101318.09;;;21.23;39.77
76122;BME280;70471;53.200;6.080;2024-02-16T13:26:45;101315.13;;;21.14;39.00
76122;BME280;70471;53.200;6.080;2024-02-16T13:31:39;101320.09;;;20.93;39.42
76122;BME280;70471;53.200;6.080;2024-02-16T13:36:33;101323.41;;;20.71;39.65
76122;BME280;70471;53.200;6.080;2024-02-16T13:41:25;101342.13;;;20.79;39.31
76122;BME280;70471;53.200;6.080;2024-02-16T13:46:17;101357.06;;;20.83;39.59
76122;BME280;70471;53.200;6.080;2024-02-16T13:51:11;101322.44;;;20.57;40.03
76122;BME280;70471;53.200;6.080;2024-02-16T13:56:04;101361.44;;;20.84;39.94
76122;BME280;70471;53.200;6.080;2024-02-16T14:00:57;101383.56;;;20.89;40.23
76122;BME280;70471;53.200;6.080;2024-02-16T14:05:50;101387.63;;;20.97;39.82
76122;BME280;70471;53.200;6.080;2024-02-16T14:10:44;101391.22;;;20.98;40.28
76122;BME280;70471;53.200;6.080;2024-02-16T14:15:37;101392.81;;;21.04;40.11
76122;BME280;70471;53.200;6.080;2024-02-16T14:20:29;101398.84;;;21.11;40.02
76122;BME280;70471;53.200;6.080;2024-02-16T14:25:22;101396.97;;;21.06;40.17
76122;BME280;70471;53.200;6.080;2024-02-16T14:30:18;101413.09;;;20.99;39.62
76122;BME280;70471;53.200;6.080;2024-02-16T14:35:11;101421.69;;;20.98;39.73
76122;BME280;70471;53.200;6.080;2024-02-16T14:40:04;101425.50;;;21.07;39.57
76122;BME280;70471;53.200;6.080;2024-02-16T14:45:00;101436.66;;;20.97;39.76
76122;BME280;70471;53.200;6.080;2024-02-16T14:49:55;101448.72;;;21.11;39.95
76122;BME280;70471;53.200;6.080;2024-02-16T14:54:47;101454.28;;;21.11;40.00
76122;BME280;70471;53.200;6.080;2024-02-16T14:59:39;101454.41;;;20.96;39.99
76122;BME280;70471;53.200;6.080;2024-02-16T15:04:33;101472.09;;;21.00;39.66
76122;BME280;70471;53.200;6.080;2024-02-16T15:09:26;101472.63;;;21.02;39.54
76122;BME280;70471;53.200;6.080;2024-02-16T15:14:20;101486.19;;;21.03;39.45
76122;BME280;70471;53.200;6.080;2024-02-16T15:19:13;101497.84;;;21.00;39.72
76122;BME280;70471;53.200;6.080;2024-02-16T15:24:06;101471.19;;;20.80;39.52
76122;BME280;70471;53.200;6.080;2024-02-16T15:29:00;101513.59;;;21.10;39.56
76122;BME280;70471;53.200;6.080;2024-02-16T15:33:52;101508.69;;;20.97;39.72
76122;BME280;70471;53.200;6.080;2024-02-16T15:38:44;101521.38;;;21.03;40.02
76122;BME280;70471;53.200;6.080;2024-02-16T15:43:36;101498.78;;;20.90;39.37
76122;BME280;70471;53.200;6.080;2024-02-16T15:48:29;101533.28;;;21.08;39.44
76122;BME280;70471;53.200;6.080;2024-02-16T15:53:23;101540.19;;;21.06;39.57
76122;BME280;70471;53.200;6.080;2024-02-16T15:58:15;101547.38;;;21.12;39.80
76122;BME280;70471;53.200;6.080;2024-02-16T16:03:07;101548.84;;;20.99;39.61
76122;BME280;70471;53.200;6.080;2024-02-16T16:08:02;101548.59;;;20.96;39.63
76122;BME280;70471;53.200;6.080;2024-02-16T16:12:55;101557.41;;;21.03;39.33
76122;BME280;70471;53.200;6.080;2024-02-16T16:17:48;101573.44;;;21.06;39.42
76122;BME280;70471;53.200;6.080;2024-02-16T16:22:40;101576.25;;;21.01;39.33
76122;BME280;70471;53.200;6.080;2024-02-16T16:27:34;101592.81;;;21.11;39.47
76122;BME280;70471;53.200;6.080;2024-02-16T16:32:26;101594.00;;;21.00;39.63
76122;BME280;70471;53.200;6.080;2024-02-16T16:37:18;101607.28;;;21.03;39.08
76122;BME280;70471;53.200;6.080;2024-02-16T16:42:10;101612.78;;;21.08;39.20
76122;BME280;70471;53.200;6.080;2024-02-16T16:47:05;101632.75;;;21.10;39.41
76122;BME280;70471;53.200;6.080;2024-02-16T16:51:57;101644.03;;;21.19;39.49
76122;BME280;70471;53.200;6.080;2024-02-16T16:56:49;101638.19;;;21.20;39.46
76122;BME280;70471;53.200;6.080;2024-02-16T17:01:42;101648.00;;;21.07;39.58
76122;BME280;70471;53.200;6.080;2024-02-16T17:06:36;101644.34;;;21.12;39.10
76122;BME280;70471;53.200;6.080;2024-02-16T17:11:28;101674.72;;;21.27;39.03
76122;BME280;70471;53.200;6.080;2024-02-16T17:16:23;101683.06;;;21.22;39.45
76122;BME280;70471;53.200;6.080;2024-02-16T17:21:15;101675.94;;;21.11;39.18
76122;BME280;70471;53.200;6.080;2024-02-16T17:26:09;101704.13;;;21.23;39.25
76122;BME280;70471;53.200;6.080;2024-02-16T17:31:01;101708.88;;;21.18;39.45
76122;BME280;70471;53.200;6.080;2024-02-16T17:35:54;101713.09;;;21.10;39.38
76122;BME280;70471;53.200;6.080;2024-02-16T17:40:46;101731.31;;;21.16;39.16
76122;BME280;70471;53.200;6.080;2024-02-16T17:45:40;101737.44;;;21.18;39.09
76122;BME280;70471;53.200;6.080;2024-02-16T17:50:32;101743.53;;;21.15;39.17
76122;BME280;70471;53.200;6.080;2024-02-16T17:55:24;101746.59;;;21.14;39.20
76122;BME280;70471;53.200;6.080;2024-02-16T18:00:17;101746.09;;;21.06;39.45
76122;BME280;70471;53.200;6.080;2024-02-16T18:05:12;101742.75;;;21.04;39.00
76122;BME280;70471;53.200;6.080;2024-02-16T18:10:05;101763.53;;;21.02;39.00
76122;BME280;70471;53.200;6.080;2024-02-16T18:14:58;101793.72;;;21.03;39.12
76122;BME280;70471;53.200;6.080;2024-02-16T18:19:50;101799.00;;;21.00;39.28
76122;BME280;70471;53.200;6.080;2024-02-16T18:24:44;101815.34;;;21.01;39.48
76122;BME280;70471;53.200;6.080;2024-02-16T18:29:36;101817.31;;;21.01;39.31
76122;BME280;70471;53.200;6.080;2024-02-16T18:34:28;101840.28;;;21.01;38.82
76122;BME280;70471;53.200;6.080;2024-02-16T18:39:21;101855.53;;;20.99;39.78
76122;BME280;70471;53.200;6.080;2024-02-16T18:44:16;101864.13;;;20.97;40.54
76122;BME280;70471;53.200;6.080;2024-02-16T18:49:09;101866.06;;;20.97;39.92
76122;BME280;70471;53.200;6.080;2024-02-16T18:54:01;101882.13;;;21.00;40.04
76122;BME280;70471;53.200;6.080;2024-02-16T18:58:56;101893.50;;;20.98;40.74
76122;BME280;70471;53.200;6.080;2024-02-16T19:03:49;101894.59;;;20.97;40.92
76122;BME280;70471;53.200;6.080;2024-02-16T19:08:42;101902.63;;;21.04;40.14
76122;BME280;70471;53.200;6.080;2024-02-16T19:13:34;101902.63;;;21.09;40.35
76122;BME280;70471;53.200;6.080;2024-02-16T19:18:29;101905.41;;;21.09;40.50
76122;BME280;70471;53.200;6.080;2024-02-16T19:23:22;101903.75;;;21.03;40.56
76122;BME280;70471;53.200;6.080;2024-02-16T19:28:14;101931.16;;;21.20;40.35
76122;BME280;70471;53.200;6.080;2024-02-16T19:33:06;101932.25;;;21.19;40.01
76122;BME280;70471;53.200;6.080;2024-02-16T19:37:58;101926.44;;;21.15;40.41
76122;BME280;70471;53.200;6.080;2024-02-16T19:42:53;101931.94;;;21.25;39.98
76122;BME280;70471;53.200;6.080;2024-02-16T19:47:45;101939.16;;;21.26;40.31
76122;BME280;70471;53.200;6.080;2024-02-16T19:52:37;101938.63;;;21.24;39.96
76122;BME280;70471;53.200;6.080;2024-02-16T19:57:30;101948.88;;;21.29;39.90
76122;BME280;70471;53.200;6.080;2024-02-16T20:02:23;101955.78;;;21.26;39.47
76122;BME280;70471;53.200;6.080;2024-02-16T20:07:15;101953.56;;;21.23;39.66
76122;BME280;70471;53.200;6.080;2024-02-16T20:12:08;101974.06;;;21.33;39.84
76122;BME280;70471;53.200;6.080;2024-02-16T20:17:00;101991.28;;;21.24;40.66
76122;BME280;70471;53.200;6.080;2024-02-16T20:21:54;101989.06;;;21.26;40.37
76122;BME280;70471;53.200;6.080;2024-02-16T20:26:48;101997.66;;;21.25;40.77
76122;BME280;70471;53.200;6.080;2024-02-16T20:31:40;102006.22;;;21.28;40.62
76122;BME280;70471;53.200;6.080;2024-02-16T20:36:33;102026.75;;;21.33;40.72
76122;BME280;70471;53.200;6.080;2024-02-16T20:41:26;102032.28;;;21.33;40.37
76122;BME280;70471;53.200;6.080;2024-02-16T20:46:19;102030.03;;;21.35;39.88
76122;BME280;70471;53.200;6.080;2024-02-16T20:51:11;102044.47;;;21.32;40.16
76122;BME280;70471;53.200;6.080;2024-02-16T20:56:04;102056.09;;;21.34;39.76
76122;BME280;70471;53.200;6.080;2024-02-16T21:00:58;102050.56;;;21.28;40.00
76122;BME280;70471;53.200;6.080;2024-02-16T21:05:51;102063.31;;;21.35;40.17
76122;BME280;70471;53.200;6.080;2024-02-16T21:10:43;102072.72;;;21.34;40.08
76122;BME280;70471;53.200;6.080;2024-02-16T21:15:36;102053.91;;;21.25;39.96
76122;BME280;70471;53.200;6.080;2024-02-16T21:20:30;102068.06;;;21.29;39.88
76122;BME280;70471;53.200;6.080;2024-02-16T21:25:22;102065.84;;;21.26;39.88
76122;BME280;70471;53.200;6.080;2024-02-16T21:30:14;102080.25;;;21.28;40.03
76122;BME280;70471;53.200;6.080;2024-02-16T21:35:07;102081.34;;;21.32;39.58
76122;BME280;70471;53.200;6.080;2024-02-16T21:40:04;102098.81;;;21.33;39.94
76122;BME280;70471;53.200;6.080;2024-02-16T21:44:56;102102.69;;;21.32;39.51
76122;BME280;70471;53.200;6.080;2024-02-16T21:49:48;102104.38;;;21.27;39.65
76122;BME280;70471;53.200;6.080;2024-02-16T21:54:40;102095.78;;;21.19;39.49
76122;BME280;70471;53.200;6.080;2024-02-16T21:59:35;102129.03;;;21.29;39.41
76122;BME280;70471;53.200;6.080;2024-02-16T22:04:27;102116.56;;;21.21;39.30
76122;BME280;70471;53.200;6.080;2024-02-16T22:09:19;102133.19;;;21.26;39.69
76122;BME280;70471;53.200;6.080;2024-02-16T22:14:12;102151.47;;;21.22;39.25
76122;BME280;70471;53.200;6.080;2024-02-16T22:19:06;102163.69;;;21.21;39.26
76122;BME280;70471;53.200;6.080;2024-02-16T22:23:58;102160.91;;;21.21;38.97
76122;BME280;70471;53.200;6.080;2024-02-16T22:28:50;102170.06;;;21.17;38.93
76122;BME280;70471;53.200;6.080;2024-02-16T22:33:42;102178.94;;;21.19;38.71
76122;BME280;70471;53.200;6.080;2024-02-16T22:38:36;102165.91;;;21.09;39.28
76122;BME280;70471;53.200;6.080;2024-02-16T22:43:28;102195.56;;;21.14;39.19
76122;BME280;70471;53.200;6.080;2024-02-16T22:48:22;102191.38;;;21.11;38.82
76122;BME280;70471;53.200;6.080;2024-02-16T22:53:14;102194.41;;;21.04;38.51
76122;BME280;70471;53.200;6.080;2024-02-16T22:58:08;102196.91;;;21.01;38.84
76122;BME280;70471;53.200;6.080;2024-02-16T23:03:01;102210.50;;;21.02;38.94
76122;BME280;70471;53.200;6.080;2024-02-16T23:07:56;102216.31;;;21.01;38.95
76122;BME280;70471;53.200;6.080;2024-02-16T23:12:48;102222.66;;;20.96;38.86
76122;BME280;70471;53.200;6.080;2024-02-16T23:17:42;102222.66;;;20.91;38.40
76122;BME280;70471;53.200;6.080;2024-02-16T23:22:34;102229.84;;;20.87;38.79
76122;BME280;70471;53.200;6.080;2024-02-16T23:27:26;102240.66;;;20.88;38.74
76122;BME280;70471;53.200;6.080;2024-02-16T23:32:18;102234.53;;;20.81;38.49
76122;BME280;70471;53.200;6.080;2024-02-16T23:37:12;102242.56;;;20.83;38.82
76122;BME280;70471;53.200;6.080;2024-02-16T23:42:04;102253.91;;;20.81;38.90
76122;BME280;70471;53.200;6.080;2024-02-16T23:46:56;102261.94;;;20.72;38.72
76122;BME280;70471;53.200;6.080;2024-02-16T23:51:50;102245.53;;;20.61;38.53
76122;BME280;70471;53.200;6.080;2024-02-16T23:56:44;102267.75;;;20.66;38.43
